Aktualne dane pomiarowe

Uwaga, wersja testowa! Automatyczne pobieranie danych za pomocą narzędzi lub skryptów to umożliwiających jest zabronione.

Dane meteo z obszaru Polski uzyskane na podstawie depesz SYNOP pobieranych co godzinę z NWS. Najedź myszką na symbol przedstawiony w tabeli, aby uzyskać informacje co do jego znaczenia. Prosimy pamiętać, że to testowa wersja strony, która jeszcze nie jest ukończona. Stworzono również jest krótki FAQ dotyczący korzystania z tej podstrony Anomalie temperatury w chwili obecnej odniesione są do okresu referencyjnego 1951-2016. Okres ten będzie później zmieniony na 1981-2010. Kliknij ikonę aby pobrać plik CSV. Kliknij ikonę aby wygenerować mapę synoptyczną dla danego terminu.

Wybierz Datę:    

        

Łódź (12465)

Dane terminowe dla wybranej stacji. Kliknij datę, aby otrzymać dane z tego terminu dla wszystkich stacji.

TemperaturaZachmurzenieWiatrCiśnienieOpadyPogoda
 Data t td wb tx tn tg rh  Nt Nl Cl Cm Ch ws wd g1 g2 wx mslp ppp ch 24h 12h t ww ww w1 w2  
2019-08-08 23:00:00 18.9 12.2 14.7--- 6520.0wxwxwxwx1wx-911012.5 991.3 1.2---------
2019-08-08 22:00:00 17.9 12.6 14.5--- 7120.0wx-wxwx2wx--21012.1 990.8 0.7---------
2019-08-08 21:00:00 18.8 12.5 14.8--- 6720.0wx-wxwx2wx--21011.6 990.4 0.4---------
2019-08-08 20:00:00 19.1 12.6 15.0--- 6620.0wx-wxwx2wx---1011.3 990.1 0.4---------
2019-08-08 19:00:00 19.6 13.3 15.5--- 6720.0wxwxwxwxwx2wx--21011.3 990.1 0.5---wx---
2019-08-08 18:00:00 22.2 12.0 15.9 25.6 18.7- 5220.0wxwxwxwx1wx-1211011.0 990.0 0.3- 0.012------
2019-08-08 17:00:00 23.7 11.1 16.1--- 4520.0wxwxwxwx2wx--21010.5 989.7 -0.2---------
2019-08-08 16:00:00 25.0 10.2 16.3--- 3920.0wxwxwxwx5wx---1010.4 989.6 -0.2---------
2019-08-08 15:00:00 24.5 10.1 16.0--- 4020.0wxwxwxwx6wx---1010.5 989.7 -0.5---------
2019-08-08 14:00:00 24.9 10.8 16.5--- 4120.0wxwxwx6wx-1261010.7 989.9 0.1---------
2019-08-08 13:00:00 24.7 11.4 16.7--- 4320.0wxwxwx6wx-1161010.6 989.8 0.1---------
2019-08-08 12:00:00 23.2 11.4 16.1--- 4720.0wxwxwx5wx-1451011.1 990.2 1.0- 0.06------
2019-08-08 11:00:00 24.0 12.4 16.9--- 4820.0wxwxwx7wx-1471010.6 989.8 1.1---------
2019-08-08 10:00:00 22.8 12.2 16.3--- 5120.0wxwxwx7wx-1371010.6 989.7 1.7---------
2019-08-08 09:00:00 22.1 14.8 17.3--- 6320.0wxwxwx8wx-1381010.2 989.2 1.8---------
2019-08-08 08:00:00 21.2 16.0 17.7--- 7220.0wxwxwx8wx-1181009.7 988.7 2.0---------
2019-08-08 07:00:00 19.8 16.4 17.4--- 8120.0wxwxwx7wx--71009.1 988.0 2.0---------
2019-08-08 06:00:00 18.7 17.2 17.6 23.8 17.4 17 9117.0wxwxwx6wx--61008.6 987.4 1.8 12.2 12.012wx-w1- 3.9
2019-08-08 05:00:00 18.0 17.0 17.3--- 9412.0wxwxwxwx6wx---1007.9 986.7 1.2---------
2019-08-08 04:00:00 17.6 16.8 17.0--- 958.0wxwxwxwx5wx---1007.2 986.0 0.9---wx---
2019-08-08 03:00:00 17.6 17.0 17.2--- 9620.0wxwxwx5wx--51006.8 985.6 0.4---wx-w1--
2019-08-08 02:00:00 17.5 16.5 16.8--- 9420.0wxwxwx4wx--41006.7 985.5 0.4---wx---
2019-08-08 01:00:00 18.2 17.6 17.8--- 963.5wxwxwx4wx--41006.2 985.1 -0.2---wx-w1--
2019-08-08 00:00:00 18.1 17.3 17.5--- 9515.0wxwxwx3wx-1231006.4 985.2 0.1- 10.06wx-w1w2--
2019-08-07 23:00:00 18.6 17.4 17.7--- 9320.0wxwxwxwx2wx--21006.2 985.1 0.3---wx-w1w2--
2019-08-07 22:00:00 18.7 18.0 18.2--- 9620.0wxwxwxwx2wx--21006.4 985.3 0.6---wx---
2019-08-07 21:00:00 18.9 17.7 18.0--- 9320.0wxwxwxwx2wx-1221006.2 985.1 0.5---wx-w1w2--
2019-08-07 20:00:00 19.6 16.4 17.4--- 823.2wxwxwx4wx12--1005.8 984.8 -0.7---wx---
2019-08-07 19:00:00 21.7 15.6 17.6--- 6820.0wx-wxwx1wx---1005.6 984.7 -0.5---------
2019-08-07 18:00:00 23.8 15.4 18.3 26.8 19.3- 5920.0wx-wxwx1wx--11005.3 984.6 -1.5- 0.012------
2019-08-07 17:00:00 25.6 15.4 19.0--- 5320.0wxwxwxwxwx2wx--21006.1 985.5 -0.7---------
2019-08-07 16:00:00 25.9 15.7 19.3--- 5320.0wxwxwxwxwx3wx--31005.8 985.2 -1.4---------
2019-08-07 15:00:00 26.2 15.7 19.4--- 5220.0wxwxwxwx3wx--31006.7 986.1 -1.1---------
2019-08-07 14:00:00 25.6 15.4 19.0--- 5320.0wxwxwxwx1wx---1006.8 986.2 -1.8---------
2019-08-07 13:00:00 25.0 15.4 18.8--- 5520.0wxwxwxwx3wx--31007.3 986.6 -1.5---------
2019-08-07 12:00:00 23.3 16.2 18.6--- 6420.0wx-wx2wx--21008.0 987.2 -0.9- 0.06------
2019-08-07 11:00:00 22.5 16.6 18.5--- 6920.0wx-wx2wx--21008.9 988.0 0.1---------
2019-08-07 10:00:00 22.3 16.2 18.2--- 6820.0wx-wx1wx--11009.0 988.1 0.5---------
2019-08-07 09:00:00 22.0 16.1 18.0--- 6920.0wx-wxwx1wx--11009.0 988.1 0.8---------
2019-08-07 08:00:00 21.3 16.4 18.0--- 7420.0wx-wxwx2wx--21008.9 987.9 0.4---------
2019-08-07 07:00:00 20.6 16.5 17.8--- 7720.0wx-wxwx2wx--21008.6 987.6 -0.2---------
2019-08-07 06:00:00 19.3 16.5 17.3 25.8 16.4 14 8420.0wx-wxwx1wx--11008.4 987.3 0.2 0.1 0.112----- 11.1
2019-08-07 05:00:00 17.8 16.1 16.6--- 9020.0wx-wxwx2wx--21008.7 987.5 0.1---------
2019-08-07 04:00:00 17.2 15.5 16.0--- 9020.0wx-wxwx2wx---1009.1 987.8 0.5---------
2019-08-07 03:00:00 16.7 14.7 15.3--- 8820.0wx-wxwx1wx--11008.4 987.1 -0.5---------
2019-08-07 02:00:00 17.7 15.3 16.0--- 8620.0wx-wx1wx--11008.6 987.4 -1.1---------
2019-08-07 01:00:00 17.8 15.8 16.4--- 8820.0wx-wx1wx--11008.5 987.3 -0.3---------
2019-08-07 00:00:00 17.8 15.8 16.4--- 8820.0wxwxwxwx1wx--11008.8 987.6 0.2- 0.16wx-w1w2--
3.1 ms

 

Print Friendly, PDF & Email